Productos aeronáuticos

  • SIGMET
  • METAR / SPECI
  • TAF
  • AIREP
  • Aviso de aeródromo
  • Pronárea
  • Carta superficie
Fecha : 23/05/2017
FTUY 03 SUMU 23 11 30
SUMU TAF 231130Z 2312/2412 04012KT CAVOK TX21/2318Z TN14/2410Z PROB40 TEMPO 2406/2411 02005KT 5000 RABR BKN023 BKN060=
SULS TAF 231130Z 2312/2412 04012KT CAVOK TX21/2318Z TN14/2410Z PROB40 TEMPO 2406/2411 02005KT 5000 RABR BKN023 BKN060=
SUAA TAF 231130Z 2312/2412 04012KT CAVOK TX21/2318Z TN14/2410Z PROB40 TEMPO 2406/2411 02005KT 5000 RABR BKN023 BKN060=
SUCA TAF 231130Z 2312/2412 04012KT CAVOK TX21/2318Z TN14/2410Z PROB40 TEMPO 2406/2411 02005KT 5000 RABR BKN023 BKN060=
SUDU TAF 231130Z 2312/2412 07012KT 9999 SCT023 BKN080 TX22/2318Z TN16/2410Z PROB40 TEMPO 2404/2410 6000 RA BKN020 OVC060=
SUSO TAF 231130Z 2312/2412 10010KT 9999 FEW023 SCT070 BKN200 TX22/2318Z TN16/2410Z PROB40 TEMPO 2319/2400 6000 RA BKN020 OVC060=
SURV TAF 231130Z 2312/2412 08010KT 8000 -RA BKN023 OVC080 TX20/2318Z TN16/2410Z PROB40 TEMPO 2312/2320 6000 TSRA BKN020 FEW040CB OVC070=

Predictor :


Mensajes TAF vigentes - Internacionales


Argentina
TAF SAAR 231100Z 2312/2412 VRB03KT 5000 BR FEW030 BKN200 TX21/2318Z TN11/2410Z BECMG 2314/2316 08005KT CAVOK BECMG 2406/2408 5000 BR NSC PROB30 2409/2412 05002KT 0800 FG
TAF SABE 231100Z 2312/2412 09010KT CAVOK TX20/2318Z TN14/2409Z BECMG 2323/2401 07005KT 9999 SCT045 BKN200 BECMG 2408/2410 02005KT 9999 SCT035 BKN100
TAF SACO 231100Z 2312/2412 36005KT 9999 FEW025 BECMG 2314/2316 09005KT 9999 BKN030 TX21/2318Z TN12/2410Z
TAF SAEZ 231100Z 2312/2412 07007KT CAVOK TX21/2318Z TN12/2409Z BECMG 2315/2318 9999 SCT020 FEW050 BECMG 2400/2403 CAVOK PROB30 2406/2411 VRB03KT 2000 MIFG TEMPO 2408/2412 0500 BCFG
TAF SAME 231100Z 2312/2412 05005KT 9999 SCT040 SCT080 TX16/2320Z TN05/2410Z
Bolivia
TAF SLLP 231040Z 2312/2412 33008KT 9999 SCT015 FEW017CB BKN070 TX14/2320Z TN01/2410Z TEMPO 2317/2321 30013G23KT 8000 RA BECMG 2323/ 2402 07004KT 4000E VCFG FEW002 SCT012 BKN070 PROB30 TEMPO 2407/2411 01005KT 6000 RASN
Brasil
TAF COR SBBR 231100Z 2306/2406 00000KT CAVOK TN19/2308Z TX27/2318Z PROB30 2308/2311 12003KT BKN007 BECMG 2311/2313 11008KT 9000 NSC BECMG 2314/2316 09004KT 9999 BKN027 FEW035TCU RMK PDC
TAF SBPA 231000Z 2312/2412 11010KT CAVOK TX23/2318Z TN14/2409Z PROB30 2407/2411 00000KT 0700 FG BKN002 RMK PEB
TAF SBFL 231000Z 2312/2412 14005KT CAVOK TX25/2316Z TN18/2409Z BECMG 2313/2315 36007KT FEW035 RMK PEB
TAF SBFI 231000Z 2312/2412 12003KT CAVOK TX24/2318Z TN20/2409Z BECMG 2313/2315 06005KT 9999 SCT025 BECMG 2403/2406 04006KT 8000 VCTS BKN015 FEW040C B BECMG 2409/2412 02006KT 4000 RA BKN008 OVC015 RMK PEB
TAF SBRJ 230900Z 2312/2324 23010KT 9999 FEW025 TX27/2318Z TN21/2323Z BECMG 2316/2318 17010KT BECMG 2321/2323 14005KT RMK PGX
TAF SBGR 230900Z 2312/2418 14005KT 9999 SCT025 TN13/2409Z TX26/2417Z BECMG 2313/2315 16010KT SCT035 BECMG 2319/2321 BKN012 BECMG 2401/2403 07005KT CAVOK PROB40 2408/2411 4000 BR BKN005 BECMG 2413/2415 9999 SCT030 RMK PGH
TAF SBSP 230900Z 2312/2412 15005KT 9999 BKN020 TX22/2317Z TN14/2409Z BECMG 2313/2315 17010KT SCT030 BECMG 2318/2320 BKN015 BECMG 2321/2323 BKN008 BECMG 2401/2403 11005KT PROB30 2408/2411 4000 BR BKN004 RMK PGH
Colombia
TAF SKBO 231100Z 2312/2412 03006KT 9999 FEW020 SCT090 BECMG 2315/2317 11012KT PROB40 TEMPO 2319/2321 8000 DZ SCT017CB BECMG 2322/2400 02006KT SCT020 TX21/2318Z TN09/2411Z
Chile
TAF COR SCCI 231050Z 2312/2412 29025G35KT 9999 FEW025 BKN040 TN01/2405Z TX07/2317Z TEMPO 2312/2321 7000 SHRA SCT020 BKN030 TEMPO 2312/2316 31035G50KT BECMG 2318/2320 26020G35KT SCT035 BECMG 2403/2405 25015G25KT
TAF SCEL 231033Z 2312/2412 14003KT 7000 SCT100 BKN150 TX14/2319Z TN06/2411Z TEMPO 2312/2314 5000 BR SCT070 BKN120 BECMG 2316/2318 16004KT BECMG 2318/2320 19008KT SCT080 BKN120 BECMG 2400/2402 FEW050 BKN100 BECMG 2408/2410 SCT050 BKN080
Ecuador
SEQM 230930Z 2312/2412 VRB03KT 9999 SCT030 SCT100 BECMG 2318/2320 36015KT FM240000 03004KT 9999 SCT020 TEMPO 2403/2406 00000KT 8000 BCFG FEW005 BKN020 FM240600 00000KT 5000 BCFG SCT005 BKN010 TEMPO 2409/2412 3000 BR TX24/2319Z TN10/2411Z
EEUU
KLGA 231141Z 2312/2412 02008KT P6SM BKN250 FM231500 05007KT P6SM BKN200 FM232000 17007KT P6SM BKN150 FM240300 VRB04KT P6SM BKN120 FM240700 03009KT P6SM SCT060 BKN100
KJFK 231141Z 2312/2418 02008KT P6SM BKN250 FM231700 VRB03KT P6SM BKN150 FM231900 18008KT P6SM BKN150 FM240300 VRB04KT P6SM BKN120 FM240700 03008KT P6SM SCT060 BKN100 FM241200 02010G17KT P6SM SCT025 BKN100
KIAD 231139Z 2312/2418 02005KT P6SM BKN050 FM231800 06006KT P6SM OVC025 FM232000 04006KT 6SM -RA OVC015 FM240000 04005KT P6SM OVC008 FM240500 VRB03KT P6SM OVC008 FM241400 10004KT P6SM BKN020
KDCA 231139Z 2312/2412 02006KT P6SM SCT050 OVC200 FM232000 05007KT 5SM -RA OVC015 FM232300 05007KT P6SM OVC008 FM241100 02004KT P6SM BKN010
KMIA 231129Z 2312/2412 17007KT P6SM SCT025 BKN250 FM231500 17013KT P6SM SCT030 BKN250 FM231800 16015G21KT P6SM SCT030 BKN250 FM240200 19007KT P6SM SCT030 BKN250
España
TAF LEBL 231100Z 2312/2412 18010KT 9999 FEW020 TX24/2312Z TN18/2406Z BECMG 2320/2322 VRB03KT BECMG 2408/2410 21010KT
TAF LEMD 231100Z 2312/2418 08006KT CAVOK TX33/2316Z TN17/2406Z PROB40 TEMPO 2315/2320 14008G18KT PROB30 TEMPO 2412/2418 14008G18KT
Francia
TAF LFPO 231100Z 2312/2418 30007KT CAVOK TEMPO 2312/2315 SCT045 BECMG 2405/2408 04005KT SCT020 BECMG 2409/2412 SCT040 BECMG 2413/2416 CAVOK
Inglaterra
TAF EGLL 231104Z 2312/2418 24008KT 9999 SCT030 PROB30 TEMPO 2404/2407 8000
Panamá
TAF MPTO 231000Z 2312/2418 07004KT 9999 FEW018 SCT100 BECMG 2314/2318 17008KT 9000 SCT017 SCT090 PROB30 TEMPO 2319/2323 7000 TSRA SCT018CB BKN080 BECMG 2400/2404 32005KT 9999 NSW SCT018 SCT090 BECMG 2404/2408 00000KT SCT016CB SCT090
Paraguay
TAF SGAS 231028Z 2312/2412 06009KT 9999 TSRA SCT033 FEW040CB TX25/2319Z TN21/2410Z BECMG 2312/2315 VRB06KT 5000 TSRA BKN020 FEW040CB BECMG 2316/2318 09004KT 7000 RA BKN027 BECMG 2319/2321 9999 BKN020
Venezuela
TAF SVMI 231000Z 2312/2412 09010KT 9999 BKN016 TX33/18Z TN24/09Z BECMG 2312/2316 05005KT SCT016

* Datos extraidos del Text DataServer de la NOAA (NOAA TEXT DATA SERVER)

Instituto Uruguayo de Meteorología

Dr. Javier Barrios Amorín 1488 - CP 11200
Mesa Central (598) 1895

Montevideo - Uruguay